Thursday, November 23, 2017, 2:30 AM EST
Back to Local

KWRI, Mcguire Air Force Base

Location: Trenton, NJ, United States Lat: 40.017
Local Time: 2:30 AM EST ( 7:30 GMT) Lon: -74.6
Time Zone: US/Eastern Elev: 134 ft

Show me the last for .
Show Decoded

2017-11-23 01:56 METAR KWRI 230656Z AUTO 33005KT 10SM CLR 00/M06 A3008 RMK AO2 SLP187 T10011059 $
                 =
2017-11-23 00:56 METAR KWRI 230556Z AUTO 35005KT 10SM CLR 00/M06 A3008 RMK AO2 SLP187 T00001058
                 10051 20000 58002 $ =
2017-11-22 23:56 METAR KWRI 230456Z AUTO 34007KT 10SM CLR 01/M05 A3010 RMK AO2 SLP193 T00101053
                 401260007 $ =
2017-11-22 22:56 METAR KWRI 230356Z AUTO 32006KT 10SM CLR 01/M05 A3009 RMK AO2 SLP190 T00141049 $
                 =
2017-11-22 21:56 METAR KWRI 230256Z AUTO 31008KT 10SM SCT039 02/M05 A3008 RMK AO2 SLP186
                 T00211046 52017 $ =
2017-11-22 20:56 METAR KWRI 230156Z AUTO 33008G15KT 10SM CLR 03/M04 A3007 RMK AO2 SLP183
                 T00281044 $ =
2017-11-22 19:56 METAR KWRI 230056Z AUTO 34013G19KT 10SM OVC041 05/M03 A3006 RMK AO2 SLP180
                 T00451033 $ =
2017-11-22 18:56 METAR KWRI 222356Z AUTO 33013G18KT 10SM OVC042 05/M03 A3003 RMK AO2 SLP169
                 T00491034 10123 20048 52030 $ =
2017-11-22 17:56 METAR KWRI 222256Z AUTO 33007G15KT 10SM BKN045 05/M03 A3001 RMK AO2 PK WND
                 32027/05 SLP163 T00521026 $ =
2017-11-22 16:56 METAR KWRI 222156Z AUTO 34012G22KT 10SM BKN040 07/M02 A2998 RMK AO2 PK WND
                 34031/2059 SLP152 T00661018 $ =
2017-11-22 15:56 METAR KWRI 222056Z AUTO 33010G18KT 10SM BKN039 OVC046 08/01 A2994 RMK AO2 PK WND
                 34026/09 SLP139 T00840009 52024 $ =
2017-11-22 14:56 METAR KWRI 221956Z AUTO 35015G23KT 10SM BKN036 BKN055 09/02 A2992 RMK AO2 PK WND
                 34028/35 SLP132 T00930022 $ =
2017-11-22 13:56 METAR KWRI 221856Z AUTO 32013G17KT 10SM FEW036 OVC055 11/04 A2989 RMK AO2 SLP122
                 T01100035 $ =
2017-11-22 12:56 METAR KWRI 221756Z AUTO 34015G20KT 10SM FEW048 12/05 A2987 RMK AO2 SLP115 60016
                 T01220049 10126 20109 58001 $ =
2017-11-22 11:56 METAR KWRI 221656Z AUTO 35007KT 10SM FEW065 BKN100 12/07 A2987 RMK AO2 RAB05E35
                 SLP115 P0000 T01160069 $ =
2017-11-22 11:35 METAR KWRI 221635Z AUTO 34008KT 10SM BKN065 BKN100 11/09 A2988 RMK AO2 RAB05E35
                 SLP118 $ =
2017-11-22 11:05 METAR KWRI 221605Z AUTO 32007KT 10SM -RA BKN090 12/10 A2988 RMK AO2 RAB05 SLP118
                 $ =
2017-11-22 10:56 METAR KWRI 221556Z 32008KT 10SM BKN090 12/10 A2988 RMK AO2A RAB19E28 SLP118
                 P0000 T01160098 $ =
2017-11-22 10:28 METAR KWRI 221528Z 31009KT 10SM SCT060 BKN070 OVC090 12/11 A2988 RMK AO2A
                 RAB19E28 SLP118 $ =
2017-11-22 10:19 METAR KWRI 221519Z 30007KT 10SM -RA BKN060 BKN090 11/11 A2989 RMK AO2A RAB19
                 SLP122 $ =
2017-11-22 09:56 METAR KWRI 221456Z 31004KT 10SM FEW007 BKN060 OVC100 11/11 A2988 RMK AO2A SLP118
                 60016 T01140108 58002 $ =
2017-11-22 09:41 METAR KWRI 221441Z 30005KT 10SM SCT006 BKN055 OVC100 11/11 A2987 RMK AO2A SLP115
                 $ =
2017-11-22 08:56 METAR KWRI 221356Z 29006KT 10SM OVC006 12/11 A2987 RMK AO2A RAE29 OVC V BKN CIG
                 005 RWY06 CIG 005 RWY18 SLP115 P0005 T01160111 $ =
2017-11-22 08:34 METAR KWRI 221334Z 29005KT 10SM BKN006 OVC030 12/11 A2987 RMK AO2A RAE29 BKN V
                 FEW CIG 005 RWY18 SLP115 $ =
2017-11-22 08:29 METAR KWRI 221329Z 29005KT 10SM SCT006 BKN030 12/11 A2987 RMK AO2A RAE29 SLP115
                 $ =
2017-11-22 08:11 METAR KWRI 221311Z 26003KT 4SM RA BR SCT008 OVC030 11/11 A2988 RMK AO2A SLP118 $
                 =
2017-11-22 07:56 METAR KWRI 221256Z 21005KT 4SM RA BR BKN009 BKN014 12/11 A2989 RMK AO2A RAB02
                 CIG 008 RWY18 SLP122 P0011 T01150110 $ =
2017-11-22 07:46 METAR KWRI 221246Z 25007KT 7SM -RA BKN009 BKN014 12/11 A2989 RMK AO2A RAB02 CIG
                 009V014 BKN009 V SCT SLP122 $ =
2017-11-22 07:36 METAR KWRI 221236Z 26006KT 7SM -RA FEW006 BKN014 OVC045 12/11 A2989 RMK AO2A
                 RAB02 CIG 013V045 BKN V SCT CIG 002 RWY18 SLP122 $ =
2017-11-22 07:31 METAR KWRI 221231Z 24006KT 6SM -RA BR SCT006 SCT013 BKN022 OVC040 12/11 A2989
                 RMK AO2A RAB02 CIG 013V022 CIG 002 RWY18 SLP122 $ =
2017-11-22 07:16 METAR KWRI 221216Z 26004KT 2 1/2SM RA BR FEW010 SCT016 BKN024 OVC029 11/11 A2989
                 RMK AO2A VIS 2 1/2V8 RAB02 CIG 023 RWY06 CIG 002 RWY18 SLP122 $ =
2017-11-22 07:02 METAR KWRI 221202Z 27003KT 10SM -RA OVC025 11/11 A2989 RMK AO2A RAB02 SLP122 $ =
2017-11-22 06:56 METAR KWRI 221156Z 00000KT 10SM OVC027 11/10 A2988 RMK AO2A
                 RAB07E29DZB31E32RAB32E46DZB46E47 CIG 025 RWY18 SLP118 P0001 60010 70010
                 T01080103 10124 20097 55011 $ =
2017-11-22 06:47 METAR KWRI 221147Z 00000KT 10SM OVC029 11/10 A2988 RMK AO2A
                 RAB07E29DZB31E32RAB32E46DZB46E47 CIG 027 RWY06 SLP118 $ =
2017-11-22 06:41 METAR KWRI 221141Z 00000KT 9SM -RA OVC029 11/10 A2988 RMK AO2A
                 RAB07E29DZB31E32RAB32 SLP118 $ =
2017-11-22 06:31 METAR KWRI 221131Z 00000KT 9SM -DZ BKN032 10/10 A2988 RMK AO2A RAB07E29DZB31
                 SLP118 $ =
2017-11-22 06:29 METAR KWRI 221129Z 00000KT 8SM BKN032 10/10 A2988 RMK AO2A RAB07E29 SLP118 $ =
2017-11-22 06:07 METAR KWRI 221107Z AUTO 00000KT 5SM -RA BR BKN034 11/10 A2988 RMK AO2 RAB07
                 SLP118 $ =
2017-11-22 06:01 METAR KWRI 221101Z 09003KT 4SM BR BKN034 11/10 A2988 RMK AO2A SLP118 $ =
2017-11-22 05:56 METAR KWRI 221056Z 00000KT 10SM BKN034 11/11 A2989 RMK AO2A SLP122 T01120106 $ =
2017-11-22 05:41 METAR KWRI 221041Z COR 00000KT 10SM BKN035 11/11 A2988 RMK AO2A SLP118 $ COR
                 1046 =
2017-11-22 05:36 METAR KWRI 221036Z COR 00000KT 1 1/8SM BR BKN035 11/10 A2988 RMK AO2A VIS 1
                 1/8V2 1/4 SLP118 $ COR 1038 =
2017-11-22 05:31 METAR KWRI 221031Z AUTO 00000KT 1 3/4SM R24/4000FT BR SCT035 11/10 A2988 RMK AO2
                 VIS 1 3/4V3 SLP118 $ =
2017-11-22 05:26 METAR KWRI 221026Z AUTO 00000KT 2 3/4SM R24/5500FT BR FEW036 11/10 A2988 RMK AO2
                 SLP118 $ =
2017-11-22 04:56 METAR KWRI 220956Z AUTO 00000KT 10SM CLR 11/11 A2987 RMK AO2 RAE0857DZB0857E0859
                 SLP115 P0000 T01140106 $ =
2017-11-22 03:59 METAR KWRI 220859Z AUTO 21006KT 10SM FEW037 SCT045 SCT065 12/11 A2991 RMK AO2
                 RAE57DZB57E59 SLP128 $ =
2017-11-22 03:56 METAR KWRI 220856Z AUTO 22006KT 10SM -RA FEW037 SCT045 SCT055 SCT070 12/11 A2991
                 RMK AO2 SLP128 P0008 60009 T01190108 57021 $ =
2017-11-22 03:07 METAR KWRI 220807Z AUTO 00000KT 9SM -RA FEW008 FEW022 SCT035 OVC043 11/10 A2995
                 RMK AO2 SLP142 $ =
2017-11-22 02:56 METAR KWRI 220756Z AUTO 00000KT 10SM -RA OVC043 10/09 A2994 RMK AO2 RAB50 SLP138
                 P0000 T01020094 $ =
2017-11-22 02:50 METAR KWRI 220750Z AUTO 00000KT 10SM -RA BKN043 10/09 A2994 RMK AO2 RAB50 SLP138
                 $ =

Support USWX by starting your Amazon purchase here.